createdAt,value
2023-01-20T00:01:58.516Z,0.60
2023-01-20T00:05:20.448Z,0.60
2023-01-20T00:08:42.640Z,0.60
2023-01-20T00:12:04.935Z,0.60
2023-01-20T00:15:27.242Z,0.50
2023-01-20T00:18:49.513Z,0.40
2023-01-20T00:22:11.467Z,0.40
2023-01-20T00:25:36.861Z,0.40
2023-01-20T00:28:58.866Z,0.40
2023-01-20T00:32:20.842Z,0.40
2023-01-20T00:35:42.801Z,0.40
2023-01-20T00:39:05.541Z,0.30
2023-01-20T00:42:27.589Z,0.30
2023-01-20T00:45:49.568Z,0.30
2023-01-20T00:49:12.148Z,0.30
2023-01-20T00:52:34.113Z,0.30
2023-01-20T00:55:56.318Z,0.30
2023-01-20T00:59:18.329Z,0.30
2023-01-20T01:02:40.376Z,0.30
2023-01-20T01:06:07.131Z,0.30
2023-01-20T01:09:29.045Z,0.30
2023-01-20T01:12:50.963Z,0.40
2023-01-20T01:16:14.657Z,0.40
2023-01-20T01:19:36.799Z,0.40
2023-01-20T01:22:58.833Z,0.40
2023-01-20T01:26:20.891Z,0.50
2023-01-20T01:29:42.891Z,0.40
2023-01-20T01:33:04.860Z,0.50
2023-01-20T01:36:26.792Z,0.40
2023-01-20T01:39:49.103Z,0.40
2023-01-20T01:43:31.183Z,0.40
2023-01-20T01:46:53.205Z,0.40
2023-01-20T01:50:26.104Z,0.40
2023-01-20T01:53:53.920Z,0.40
2023-01-20T01:57:16.004Z,0.30
2023-01-20T02:00:39.048Z,0.20
2023-01-20T02:04:05.144Z,0.10
2023-01-20T02:07:27.461Z,0.00
2023-01-20T02:10:49.519Z,-0.10
2023-01-20T02:14:12.076Z,-0.20
2023-01-20T02:17:49.418Z,-0.30
2023-01-20T02:21:40.906Z,-0.40
2023-01-20T02:25:30.121Z,-0.40
2023-01-20T02:29:23.324Z,-0.50
2023-01-20T02:32:48.262Z,-0.50
2023-01-20T02:36:43.325Z,-0.70
2023-01-20T02:40:30.003Z,-0.70
2023-01-20T02:44:19.412Z,-0.60
2023-01-20T02:48:22.895Z,-0.70
2023-01-20T02:51:56.911Z,-0.80
2023-01-20T02:55:33.178Z,-0.80
2023-01-20T02:59:10.216Z,-0.90
2023-01-20T03:02:36.051Z,-0.80
2023-01-20T03:06:02.262Z,-1.00
2023-01-20T03:09:47.138Z,-1.10
2023-01-20T03:13:29.709Z,-1.20
2023-01-20T03:16:51.835Z,-1.40
2023-01-20T03:20:14.051Z,-1.40
2023-01-20T03:23:40.522Z,-1.50
2023-01-20T03:27:02.562Z,-1.60
2023-01-20T03:30:25.701Z,-1.70
2023-01-20T03:33:49.370Z,-1.70
2023-01-20T03:37:12.537Z,-1.70
2023-01-20T03:40:42.524Z,-1.70
2023-01-20T03:44:45.746Z,-1.80
2023-01-20T03:48:17.707Z,-1.70
2023-01-20T03:52:00.515Z,-1.70
2023-01-20T03:55:22.451Z,-1.70
2023-01-20T03:58:49.294Z,-1.60
2023-01-20T04:02:12.348Z,-1.50
2023-01-20T04:05:36.039Z,-1.40
2023-01-20T04:09:05.140Z,-1.30
2023-01-20T04:12:27.099Z,-1.30
2023-01-20T04:15:50.242Z,-1.40
2023-01-20T04:19:12.322Z,-1.30
2023-01-20T04:22:46.071Z,-1.40
2023-01-20T04:26:08.137Z,-1.50
2023-01-20T04:29:30.058Z,-1.50
2023-01-20T04:32:52.082Z,-1.60
2023-01-20T04:36:14.027Z,-1.60
2023-01-20T04:39:36.045Z,-1.60
2023-01-20T04:42:58.959Z,-1.70
2023-01-20T04:46:21.060Z,-1.80
2023-01-20T04:49:43.076Z,-1.80
2023-01-20T04:53:05.094Z,-1.80
2023-01-20T04:56:27.313Z,-1.90
2023-01-20T04:59:50.026Z,-1.80
2023-01-20T05:03:12.015Z,-0.80
2023-01-20T05:06:35.319Z,-0.80
2023-01-20T05:09:57.245Z,-0.80
2023-01-20T05:13:19.192Z,-0.80
2023-01-20T05:16:41.316Z,-0.90
2023-01-20T05:20:03.560Z,-0.90
2023-01-20T05:23:25.519Z,-0.80
2023-01-20T05:26:47.568Z,-0.80
2023-01-20T05:30:10.312Z,-0.80
2023-01-20T05:33:32.462Z,-0.80
2023-01-20T05:36:54.634Z,-0.80
2023-01-20T05:40:16.857Z,-0.70
2023-01-20T05:43:38.882Z,-0.70
2023-01-20T05:47:00.872Z,-0.70
2023-01-20T05:50:24.181Z,-0.70
2023-01-20T05:53:46.456Z,-0.80
2023-01-20T05:57:08.630Z,-0.70
2023-01-20T06:00:31.084Z,-0.80
2023-01-20T06:03:53.204Z,-0.70
2023-01-20T06:07:15.752Z,-0.70
2023-01-20T06:10:37.695Z,-0.80
2023-01-20T06:13:59.697Z,-0.70
2023-01-20T06:17:21.619Z,-0.70
2023-01-20T06:20:43.558Z,-0.70
2023-01-20T06:24:06.092Z,-0.70
2023-01-20T06:27:28.110Z,-0.70
2023-01-20T06:30:50.035Z,-0.70
2023-01-20T06:34:12.659Z,-0.70
2023-01-20T06:37:34.662Z,-0.60
2023-01-20T06:41:02.595Z,-0.70
2023-01-20T06:44:25.211Z,-0.60
2023-01-20T06:47:50.456Z,-0.70
2023-01-20T06:51:18.160Z,-0.60
2023-01-20T06:54:40.243Z,-0.60
2023-01-20T06:58:02.231Z,-0.60
2023-01-20T07:01:26.836Z,-0.50
2023-01-20T07:04:52.537Z,-0.50
2023-01-20T07:08:14.478Z,-0.50
2023-01-20T07:11:36.638Z,-0.50
2023-01-20T07:14:58.721Z,-0.40
2023-01-20T07:18:20.850Z,-0.40
2023-01-20T07:21:45.937Z,-0.40
2023-01-20T07:25:08.214Z,-0.40
2023-01-20T07:28:31.836Z,-0.40
2023-01-20T07:31:53.954Z,-0.40
2023-01-20T07:35:16.457Z,-0.40
2023-01-20T07:38:38.885Z,-0.40
2023-01-20T07:42:00.820Z,-0.40
2023-01-20T07:45:22.858Z,-0.40
2023-01-20T07:48:44.910Z,-0.40
2023-01-20T07:52:10.149Z,-0.40
2023-01-20T07:55:34.696Z,-0.40
2023-01-20T07:58:57.477Z,-0.30
2023-01-20T08:02:19.463Z,-0.30
2023-01-20T08:05:41.494Z,-0.40
2023-01-20T08:09:03.637Z,-0.30
2023-01-20T08:12:25.632Z,-0.30
2023-01-20T08:15:47.757Z,-0.30
2023-01-20T08:19:09.714Z,-0.20
2023-01-20T08:22:31.761Z,-0.10
2023-01-20T08:26:05.719Z,-0.10
2023-01-20T08:29:27.841Z,0.10
2023-01-20T08:32:50.002Z,0.30
2023-01-20T08:36:18.036Z,0.70
2023-01-20T08:39:40.017Z,1.30
2023-01-20T08:43:02.296Z,1.70
2023-01-20T08:46:24.862Z,2.20
2023-01-20T08:49:46.905Z,2.70
2023-01-20T08:53:08.939Z,3.40
2023-01-20T08:56:31.119Z,4.50
2023-01-20T08:59:54.358Z,5.10
2023-01-20T09:03:16.424Z,6.00
2023-01-20T09:06:48.488Z,6.90
2023-01-20T09:10:11.114Z,7.90
2023-01-20T09:13:33.135Z,8.20
2023-01-20T09:16:56.260Z,8.30
2023-01-20T09:20:18.302Z,8.80
2023-01-20T09:23:42.806Z,9.10
2023-01-20T09:27:04.947Z,8.50
2023-01-20T09:30:26.984Z,7.50
2023-01-20T09:33:49.055Z,7.40
2023-01-20T09:37:29.578Z,8.30
2023-01-20T09:41:43.065Z,8.10
2023-01-20T09:45:32.939Z,7.90
2023-01-20T09:49:23.540Z,7.60
2023-01-20T09:53:05.145Z,7.00
2023-01-20T09:56:29.275Z,6.30
2023-01-20T10:00:07.371Z,5.90
2023-01-20T10:04:02.932Z,5.50
2023-01-20T10:07:46.732Z,5.40
2023-01-20T10:11:16.227Z,5.40
2023-01-20T10:15:10.146Z,5.40
2023-01-20T10:18:48.365Z,5.80
2023-01-20T10:22:16.747Z,6.30
2023-01-20T10:25:45.511Z,7.00
2023-01-20T10:29:13.543Z,8.00
2023-01-20T10:32:39.648Z,9.00
2023-01-20T10:36:04.042Z,9.90
2023-01-20T10:39:48.499Z,9.40
2023-01-20T10:43:18.212Z,9.60
2023-01-20T10:47:01.910Z,9.80
2023-01-20T10:50:33.299Z,9.80
2023-01-20T10:54:14.400Z,10.20
2023-01-20T10:57:38.318Z,10.40
2023-01-20T11:01:04.923Z,8.90
2023-01-20T11:04:28.307Z,8.40
2023-01-20T11:07:53.407Z,7.70
2023-01-20T11:11:36.847Z,7.50
2023-01-20T11:15:00.943Z,7.40
2023-01-20T11:18:32.198Z,7.30
2023-01-20T11:21:54.271Z,7.40
2023-01-20T11:25:58.072Z,7.90
2023-01-20T11:29:39.274Z,8.70
2023-01-20T11:37:08.880Z,9.20
2023-01-20T11:41:25.481Z,9.50
2023-01-20T11:44:55.428Z,9.40
2023-01-20T11:48:31.741Z,9.30
2023-01-20T11:52:18.826Z,9.10
2023-01-20T11:55:55.653Z,9.10
2023-01-20T11:59:31.885Z,8.90
2023-01-20T12:03:01.011Z,8.60
2023-01-20T12:06:32.586Z,8.10
2023-01-20T12:10:05.768Z,8.10
2023-01-20T12:13:59.383Z,7.90
2023-01-20T12:17:41.871Z,7.90
2023-01-20T12:21:18.409Z,7.90
2023-01-20T12:25:08.059Z,7.80
2023-01-20T12:28:33.179Z,7.70
2023-01-20T12:31:55.432Z,7.80
2023-01-20T12:35:17.599Z,7.80
2023-01-20T12:38:53.979Z,7.60
2023-01-20T12:42:42.833Z,7.70
2023-01-20T12:46:20.198Z,7.60
2023-01-20T12:50:16.465Z,7.70
2023-01-20T12:53:49.380Z,7.90
2023-01-20T12:57:44.526Z,7.90
2023-01-20T13:01:24.411Z,7.70
2023-01-20T13:04:49.516Z,7.50
2023-01-20T13:08:24.636Z,7.30
2023-01-20T13:11:52.265Z,7.10
2023-01-20T13:15:32.944Z,7.00
2023-01-20T13:19:13.431Z,6.90
2023-01-20T13:22:36.491Z,6.70
2023-01-20T13:26:00.323Z,6.60
2023-01-20T13:29:42.972Z,6.50
2023-01-20T13:33:13.025Z,6.40
2023-01-20T13:36:34.954Z,6.40
2023-01-20T13:39:59.884Z,6.30
2023-01-20T13:43:27.459Z,6.30
2023-01-20T13:46:49.685Z,6.20
2023-01-20T13:50:25.478Z,6.20
2023-01-20T13:53:50.009Z,6.10
2023-01-20T13:57:24.299Z,6.20
2023-01-20T14:00:49.968Z,6.10
2023-01-20T14:04:17.114Z,6.10
2023-01-20T14:07:39.123Z,6.20
2023-01-20T14:11:15.763Z,6.10
2023-01-20T14:14:42.487Z,6.20
2023-01-20T14:18:05.339Z,6.20
2023-01-20T14:21:39.170Z,6.30
2023-01-20T14:25:01.842Z,6.20
2023-01-20T14:28:24.390Z,6.10
2023-01-20T14:31:46.475Z,6.10
2023-01-20T14:35:21.143Z,6.10
2023-01-20T14:38:56.560Z,6.00
2023-01-20T14:42:21.379Z,5.90
2023-01-20T14:45:46.540Z,5.70
2023-01-20T14:49:14.900Z,5.50
2023-01-20T14:52:36.882Z,5.20
2023-01-20T14:56:09.636Z,5.10
2023-01-20T14:59:31.766Z,4.90
2023-01-20T15:03:10.164Z,4.80
2023-01-20T15:06:32.864Z,4.70
2023-01-20T15:10:01.870Z,4.70
2023-01-20T15:13:25.030Z,4.60
2023-01-20T15:16:49.561Z,4.50
2023-01-20T15:20:29.037Z,4.50
2023-01-20T15:23:52.999Z,4.40
2023-01-20T15:27:24.517Z,4.40
2023-01-20T15:30:46.667Z,4.30
2023-01-20T15:34:10.305Z,4.30
2023-01-20T15:37:39.267Z,4.20
2023-01-20T15:45:56.349Z,4.00
2023-01-20T15:49:19.691Z,3.80
2023-01-20T15:52:42.453Z,3.70
2023-01-20T15:56:04.706Z,3.70
2023-01-20T15:59:30.149Z,3.60
2023-01-20T16:02:52.267Z,3.50
2023-01-20T16:06:17.162Z,3.40
2023-01-20T16:09:39.146Z,3.50
2023-01-20T16:13:01.364Z,3.40
2023-01-20T16:20:01.052Z,3.20
2023-01-20T16:23:23.099Z,3.20
2023-01-20T16:26:47.100Z,3.20
2023-01-20T16:30:18.869Z,3.10
2023-01-20T16:33:41.113Z,3.10
2023-01-20T16:37:03.255Z,3.00
2023-01-20T16:40:25.234Z,3.10
2023-01-20T16:43:47.245Z,3.00
2023-01-20T16:47:09.287Z,2.90
2023-01-20T16:50:42.451Z,2.90
2023-01-20T16:54:05.162Z,2.90
2023-01-20T16:57:27.056Z,2.80
2023-01-20T17:00:49.032Z,2.80
2023-01-20T17:04:11.026Z,2.70
2023-01-20T17:07:33.126Z,2.70
2023-01-20T17:10:55.135Z,2.70
2023-01-20T17:14:17.089Z,2.70
2023-01-20T17:17:39.025Z,2.60
2023-01-20T17:21:07.001Z,2.60
2023-01-20T17:24:28.923Z,2.60
2023-01-20T17:27:50.941Z,2.70
2023-01-20T17:31:12.998Z,2.80
2023-01-20T17:34:34.941Z,2.80
2023-01-20T17:37:58.254Z,2.70
2023-01-20T17:41:20.255Z,2.70
2023-01-20T17:44:42.206Z,2.70
2023-01-20T17:48:04.718Z,2.70
2023-01-20T17:51:28.882Z,2.60
2023-01-20T17:54:52.082Z,2.60
2023-01-20T17:58:14.110Z,2.60
2023-01-20T18:01:36.117Z,2.60
2023-01-20T18:04:58.095Z,2.60
2023-01-20T18:08:20.109Z,2.60
2023-01-20T18:11:43.655Z,2.60
2023-01-20T18:15:06.239Z,2.50
2023-01-20T18:18:28.979Z,2.50
2023-01-20T18:21:50.953Z,2.40
2023-01-20T18:25:13.016Z,2.40
2023-01-20T18:28:36.022Z,2.30
2023-01-20T18:31:58.277Z,2.30
2023-01-20T18:35:20.337Z,2.30
2023-01-20T18:38:45.532Z,2.20
2023-01-20T18:42:07.490Z,2.20
2023-01-20T18:45:29.494Z,2.10
2023-01-20T18:48:57.741Z,1.90
2023-01-20T18:52:20.152Z,1.80
2023-01-20T18:55:42.219Z,1.60
2023-01-20T18:59:06.438Z,1.40
2023-01-20T19:02:28.775Z,1.30
2023-01-20T19:05:55.069Z,1.10
2023-01-20T19:09:22.078Z,0.90
2023-01-20T19:12:44.774Z,0.80
2023-01-20T19:16:10.428Z,0.70
2023-01-20T19:19:32.553Z,0.60
2023-01-20T19:22:54.555Z,0.50
2023-01-20T19:26:18.791Z,0.40
2023-01-20T19:29:41.517Z,0.30
2023-01-20T19:33:03.920Z,0.20
2023-01-20T19:36:26.629Z,0.10
2023-01-20T19:40:04.453Z,0.00
2023-01-20T19:43:26.425Z,-0.10
2023-01-20T19:46:48.444Z,-0.20
2023-01-20T19:50:11.025Z,-0.30
2023-01-20T19:53:33.768Z,-0.40
2023-01-20T19:56:58.442Z,-0.40
2023-01-20T20:00:20.712Z,-0.40
2023-01-20T20:03:43.250Z,-0.60
2023-01-20T20:07:05.248Z,-0.60
2023-01-20T20:10:27.239Z,-0.60
2023-01-20T20:14:03.046Z,-0.60
2023-01-20T20:17:27.708Z,-0.50
2023-01-20T20:20:49.661Z,-0.60
2023-01-20T20:24:13.357Z,-0.60
2023-01-20T20:27:35.350Z,-0.70
2023-01-20T20:31:05.184Z,-0.70
2023-01-20T20:34:27.299Z,-0.80
2023-01-20T20:37:49.354Z,-0.80
2023-01-20T20:41:11.616Z,-0.80
2023-01-20T20:44:33.609Z,-0.80
2023-01-20T20:47:57.101Z,-0.80
2023-01-20T20:51:19.116Z,-0.70
2023-01-20T20:54:41.076Z,-0.70
2023-01-20T20:58:03.092Z,-0.70
2023-01-20T21:01:25.149Z,-0.70
2023-01-20T21:04:47.120Z,-0.60
2023-01-20T21:08:09.133Z,-0.70
2023-01-20T21:11:31.535Z,-0.70
2023-01-20T21:14:53.875Z,-0.70
2023-01-20T21:18:16.006Z,-0.70
2023-01-20T21:21:38.004Z,-0.70
2023-01-20T21:25:31.413Z,-0.70
2023-01-20T21:29:00.337Z,-0.80
2023-01-20T21:32:57.606Z,-0.80
2023-01-20T21:36:20.540Z,-0.70
2023-01-20T21:39:42.543Z,-0.80
2023-01-20T21:43:23.540Z,-0.80
2023-01-20T21:46:45.629Z,-0.90
2023-01-20T21:50:30.396Z,-1.00
2023-01-20T21:53:52.387Z,-1.10
2023-01-20T21:57:14.814Z,-1.10
2023-01-20T22:00:37.017Z,-1.10
2023-01-20T22:03:59.286Z,-1.10
2023-01-20T22:07:48.002Z,-1.20
2023-01-20T22:11:18.921Z,-1.20
2023-01-20T22:14:45.246Z,-1.30
2023-01-20T22:18:07.834Z,-1.20
2023-01-20T22:21:29.810Z,-1.20
2023-01-20T22:24:51.965Z,-1.20
2023-01-20T22:28:14.123Z,-1.00
2023-01-20T22:31:36.232Z,-1.10
2023-01-20T22:34:58.680Z,-1.10
2023-01-20T22:38:20.594Z,-1.00
2023-01-20T22:41:45.928Z,-1.00
2023-01-20T22:45:08.476Z,-0.90
2023-01-20T22:48:32.433Z,-1.00
2023-01-20T22:51:55.245Z,-1.10
2023-01-20T22:55:17.198Z,-1.20
2023-01-20T22:58:39.828Z,-1.20
2023-01-20T23:02:01.824Z,-1.30
2023-01-20T23:05:23.801Z,-1.40
2023-01-20T23:08:45.771Z,-1.40
2023-01-20T23:12:07.726Z,-1.50
2023-01-20T23:15:29.808Z,-1.50
2023-01-20T23:18:52.494Z,-1.60
2023-01-20T23:22:14.463Z,-1.60
2023-01-20T23:25:36.669Z,-1.60
2023-01-20T23:28:59.015Z,-1.70
2023-01-20T23:32:21.171Z,-1.70
2023-01-20T23:35:43.094Z,-1.60
2023-01-20T23:39:04.992Z,-1.80
2023-01-20T23:42:29.101Z,-1.80
2023-01-20T23:45:51.178Z,-1.90
2023-01-20T23:49:13.102Z,-1.90
2023-01-20T23:52:35.276Z,-1.90
2023-01-20T23:56:01.960Z,-1.90
2023-01-20T23:59:23.943Z,-2.00
